sensor_id;sensor_type;location;lat;lon;timestamp;P1;durP1;ratioP1;P2;durP2;ratioP2
73337;SDS011;61575;49.908;35.556;2022-12-07T00:00:40;10.20;;;4.47;;
73337;SDS011;61575;49.908;35.556;2022-12-07T00:03:43;9.47;;;3.40;;
73337;SDS011;61575;49.908;35.556;2022-12-07T00:06:46;9.27;;;3.92;;
73337;SDS011;61575;49.908;35.556;2022-12-07T00:09:52;11.23;;;4.68;;
73337;SDS011;61575;49.908;35.556;2022-12-07T00:12:54;11.77;;;4.97;;
73337;SDS011;61575;49.908;35.556;2022-12-07T00:15:55;10.18;;;3.90;;
73337;SDS011;61575;49.908;35.556;2022-12-07T00:19:01;9.30;;;3.92;;
73337;SDS011;61575;49.908;35.556;2022-12-07T00:22:04;11.60;;;4.30;;
73337;SDS011;61575;49.908;35.556;2022-12-07T00:25:06;13.02;;;5.97;;
73337;SDS011;61575;49.908;35.556;2022-12-07T00:28:08;10.15;;;4.72;;
73337;SDS011;61575;49.908;35.556;2022-12-07T00:31:12;9.15;;;4.10;;
73337;SDS011;61575;49.908;35.556;2022-12-07T00:34:17;12.88;;;5.28;;
73337;SDS011;61575;49.908;35.556;2022-12-07T00:37:24;13.55;;;5.05;;
73337;SDS011;61575;49.908;35.556;2022-12-07T00:40:25;10.13;;;4.35;;
73337;SDS011;61575;49.908;35.556;2022-12-07T00:43:27;9.60;;;4.22;;
73337;SDS011;61575;49.908;35.556;2022-12-07T00:46:30;11.73;;;4.38;;
73337;SDS011;61575;49.908;35.556;2022-12-07T00:49:32;9.77;;;4.35;;
73337;SDS011;61575;49.908;35.556;2022-12-07T00:52:34;13.02;;;4.60;;
73337;SDS011;61575;49.908;35.556;2022-12-07T00:55:36;11.77;;;4.53;;
73337;SDS011;61575;49.908;35.556;2022-12-07T00:58:38;8.43;;;3.72;;
73337;SDS011;61575;49.908;35.556;2022-12-07T01:01:40;10.13;;;4.47;;
73337;SDS011;61575;49.908;35.556;2022-12-07T01:04:43;11.00;;;4.32;;
73337;SDS011;61575;49.908;35.556;2022-12-07T01:07:44;11.50;;;4.43;;
73337;SDS011;61575;49.908;35.556;2022-12-07T01:10:48;10.43;;;4.50;;
73337;SDS011;61575;49.908;35.556;2022-12-07T01:13:50;11.23;;;4.80;;
73337;SDS011;61575;49.908;35.556;2022-12-07T01:16:53;11.27;;;4.25;;
73337;SDS011;61575;49.908;35.556;2022-12-07T01:19:55;12.98;;;4.65;;
73337;SDS011;61575;49.908;35.556;2022-12-07T01:22:57;10.35;;;4.90;;
73337;SDS011;61575;49.908;35.556;2022-12-07T01:26:00;12.75;;;4.85;;
73337;SDS011;61575;49.908;35.556;2022-12-07T01:29:03;11.30;;;4.82;;
73337;SDS011;61575;49.908;35.556;2022-12-07T01:32:06;11.98;;;4.85;;
73337;SDS011;61575;49.908;35.556;2022-12-07T01:35:08;13.65;;;5.07;;
73337;SDS011;61575;49.908;35.556;2022-12-07T01:38:10;12.23;;;4.77;;
73337;SDS011;61575;49.908;35.556;2022-12-07T01:41:12;17.17;;;5.90;;
73337;SDS011;61575;49.908;35.556;2022-12-07T01:44:16;12.30;;;5.50;;
73337;SDS011;61575;49.908;35.556;2022-12-07T01:47:28;11.00;;;4.75;;
73337;SDS011;61575;49.908;35.556;2022-12-07T01:50:29;11.45;;;4.95;;
73337;SDS011;61575;49.908;35.556;2022-12-07T01:53:35;11.75;;;5.20;;
73337;SDS011;61575;49.908;35.556;2022-12-07T01:56:42;15.27;;;5.20;;
73337;SDS011;61575;49.908;35.556;2022-12-07T01:59:51;11.75;;;5.15;;
73337;SDS011;61575;49.908;35.556;2022-12-07T02:06:16;12.75;;;5.35;;
73337;SDS011;61575;49.908;35.556;2022-12-07T02:09:22;13.68;;;5.55;;
73337;SDS011;61575;49.908;35.556;2022-12-07T02:12:24;11.80;;;5.38;;
73337;SDS011;61575;49.908;35.556;2022-12-07T02:25:53;13.10;;;5.00;;
73337;SDS011;61575;49.908;35.556;2022-12-07T02:32:27;13.05;;;5.50;;
73337;SDS011;61575;49.908;35.556;2022-12-07T02:36:02;11.45;;;5.32;;
73337;SDS011;61575;49.908;35.556;2022-12-07T02:39:17;13.88;;;5.93;;
73337;SDS011;61575;49.908;35.556;2022-12-07T02:42:28;13.05;;;5.22;;
73337;SDS011;61575;49.908;35.556;2022-12-07T02:45:38;12.98;;;5.68;;
73337;SDS011;61575;49.908;35.556;2022-12-07T02:48:43;13.00;;;5.97;;
73337;SDS011;61575;49.908;35.556;2022-12-07T02:51:46;15.77;;;6.22;;
73337;SDS011;61575;49.908;35.556;2022-12-07T02:54:48;17.93;;;6.67;;
73337;SDS011;61575;49.908;35.556;2022-12-07T03:01:27;14.63;;;5.60;;
73337;SDS011;61575;49.908;35.556;2022-12-07T03:11:21;14.55;;;6.43;;
73337;SDS011;61575;49.908;35.556;2022-12-07T03:14:32;17.73;;;6.75;;
73337;SDS011;61575;49.908;35.556;2022-12-07T03:17:39;12.82;;;5.38;;
73337;SDS011;61575;49.908;35.556;2022-12-07T03:20:44;18.48;;;6.57;;
73337;SDS011;61575;49.908;35.556;2022-12-07T03:23:51;14.90;;;6.15;;
73337;SDS011;61575;49.908;35.556;2022-12-07T03:27:18;15.02;;;6.00;;
73337;SDS011;61575;49.908;35.556;2022-12-07T03:31:05;16.75;;;5.93;;
73337;SDS011;61575;49.908;35.556;2022-12-07T03:37:42;16.20;;;7.00;;
73337;SDS011;61575;49.908;35.556;2022-12-07T03:40:48;18.70;;;6.75;;
73337;SDS011;61575;49.908;35.556;2022-12-07T03:43:56;13.77;;;5.95;;
73337;SDS011;61575;49.908;35.556;2022-12-07T03:57:16;13.40;;;6.38;;
73337;SDS011;61575;49.908;35.556;2022-12-07T04:00:18;16.30;;;6.07;;
73337;SDS011;61575;49.908;35.556;2022-12-07T04:03:23;14.85;;;6.75;;
73337;SDS011;61575;49.908;35.556;2022-12-07T04:06:24;14.87;;;6.40;;
73337;SDS011;61575;49.908;35.556;2022-12-07T04:09:26;15.20;;;5.43;;
73337;SDS011;61575;49.908;35.556;2022-12-07T04:12:28;14.07;;;5.90;;
73337;SDS011;61575;49.908;35.556;2022-12-07T04:15:30;14.75;;;5.88;;
73337;SDS011;61575;49.908;35.556;2022-12-07T04:18:32;10.47;;;4.77;;
73337;SDS011;61575;49.908;35.556;2022-12-07T04:21:34;15.57;;;6.38;;
73337;SDS011;61575;49.908;35.556;2022-12-07T04:24:36;13.43;;;5.88;;
73337;SDS011;61575;49.908;35.556;2022-12-07T04:27:38;15.20;;;6.05;;
73337;SDS011;61575;49.908;35.556;2022-12-07T04:30:39;12.80;;;5.90;;
73337;SDS011;61575;49.908;35.556;2022-12-07T04:33:41;15.10;;;5.70;;
73337;SDS011;61575;49.908;35.556;2022-12-07T04:36:44;14.27;;;6.40;;
73337;SDS011;61575;49.908;35.556;2022-12-07T04:39:46;16.92;;;7.30;;
73337;SDS011;61575;49.908;35.556;2022-12-07T04:42:48;16.17;;;6.73;;
73337;SDS011;61575;49.908;35.556;2022-12-07T04:45:50;15.30;;;6.38;;
73337;SDS011;61575;49.908;35.556;2022-12-07T04:48:53;15.82;;;6.53;;
73337;SDS011;61575;49.908;35.556;2022-12-07T04:51:55;15.80;;;6.72;;
73337;SDS011;61575;49.908;35.556;2022-12-07T04:54:57;19.13;;;6.50;;
73337;SDS011;61575;49.908;35.556;2022-12-07T04:58:00;14.35;;;6.80;;
73337;SDS011;61575;49.908;35.556;2022-12-07T05:04:03;14.60;;;5.90;;
73337;SDS011;61575;49.908;35.556;2022-12-07T05:07:05;10.27;;;4.97;;
73337;SDS011;61575;49.908;35.556;2022-12-07T05:10:07;14.60;;;6.88;;
73337;SDS011;61575;49.908;35.556;2022-12-07T05:13:10;14.38;;;6.43;;
73337;SDS011;61575;49.908;35.556;2022-12-07T05:16:11;16.50;;;7.37;;
73337;SDS011;61575;49.908;35.556;2022-12-07T05:19:13;17.83;;;6.78;;
73337;SDS011;61575;49.908;35.556;2022-12-07T05:22:15;14.77;;;6.03;;
73337;SDS011;61575;49.908;35.556;2022-12-07T05:25:17;16.58;;;6.03;;
73337;SDS011;61575;49.908;35.556;2022-12-07T05:28:19;14.77;;;5.97;;
73337;SDS011;61575;49.908;35.556;2022-12-07T05:31:21;16.08;;;6.00;;
73337;SDS011;61575;49.908;35.556;2022-12-07T05:34:24;14.63;;;6.22;;
73337;SDS011;61575;49.908;35.556;2022-12-07T05:37:26;12.70;;;5.53;;
73337;SDS011;61575;49.908;35.556;2022-12-07T05:40:28;15.60;;;5.63;;
73337;SDS011;61575;49.908;35.556;2022-12-07T05:43:30;16.58;;;6.25;;
73337;SDS011;61575;49.908;35.556;2022-12-07T05:46:34;14.88;;;6.32;;
73337;SDS011;61575;49.908;35.556;2022-12-07T05:49:36;15.25;;;6.25;;
73337;SDS011;61575;49.908;35.556;2022-12-07T05:52:38;13.73;;;5.67;;
73337;SDS011;61575;49.908;35.556;2022-12-07T05:55:40;17.10;;;6.40;;
73337;SDS011;61575;49.908;35.556;2022-12-07T05:58:41;22.47;;;6.80;;
73337;SDS011;61575;49.908;35.556;2022-12-07T06:02:09;12.02;;;6.22;;
73337;SDS011;61575;49.908;35.556;2022-12-07T06:05:13;15.02;;;6.10;;
73337;SDS011;61575;49.908;35.556;2022-12-07T06:08:15;15.18;;;6.57;;
73337;SDS011;61575;49.908;35.556;2022-12-07T06:11:17;11.63;;;5.07;;
73337;SDS011;61575;49.908;35.556;2022-12-07T06:14:37;15.02;;;5.85;;
73337;SDS011;61575;49.908;35.556;2022-12-07T06:17:40;14.90;;;5.97;;
73337;SDS011;61575;49.908;35.556;2022-12-07T06:20:42;12.75;;;5.57;;
73337;SDS011;61575;49.908;35.556;2022-12-07T06:23:44;14.30;;;6.13;;
73337;SDS011;61575;49.908;35.556;2022-12-07T06:26:45;11.07;;;5.03;;
73337;SDS011;61575;49.908;35.556;2022-12-07T06:29:47;14.07;;;4.32;;
73337;SDS011;61575;49.908;35.556;2022-12-07T06:32:49;16.15;;;5.90;;
73337;SDS011;61575;49.908;35.556;2022-12-07T06:35:51;14.88;;;5.63;;
73337;SDS011;61575;49.908;35.556;2022-12-07T06:38:53;14.33;;;5.50;;
73337;SDS011;61575;49.908;35.556;2022-12-07T06:41:56;12.60;;;5.47;;
73337;SDS011;61575;49.908;35.556;2022-12-07T06:44:58;10.85;;;4.68;;
73337;SDS011;61575;49.908;35.556;2022-12-07T06:48:00;14.55;;;5.65;;
73337;SDS011;61575;49.908;35.556;2022-12-07T06:51:02;18.83;;;6.43;;
73337;SDS011;61575;49.908;35.556;2022-12-07T06:54:04;15.00;;;6.87;;
73337;SDS011;61575;49.908;35.556;2022-12-07T06:57:06;15.15;;;6.43;;
73337;SDS011;61575;49.908;35.556;2022-12-07T07:00:08;17.50;;;7.35;;
73337;SDS011;61575;49.908;35.556;2022-12-07T07:06:13;14.35;;;6.10;;
73337;SDS011;61575;49.908;35.556;2022-12-07T07:09:16;16.15;;;6.75;;
73337;SDS011;61575;49.908;35.556;2022-12-07T07:12:18;12.85;;;6.38;;
73337;SDS011;61575;49.908;35.556;2022-12-07T07:15:20;19.37;;;7.03;;
73337;SDS011;61575;49.908;35.556;2022-12-07T07:18:22;12.82;;;5.82;;
73337;SDS011;61575;49.908;35.556;2022-12-07T07:21:24;19.52;;;6.47;;
73337;SDS011;61575;49.908;35.556;2022-12-07T07:24:26;19.38;;;7.45;;
73337;SDS011;61575;49.908;35.556;2022-12-07T07:27:27;15.38;;;7.10;;
73337;SDS011;61575;49.908;35.556;2022-12-07T07:30:29;15.85;;;6.75;;
73337;SDS011;61575;49.908;35.556;2022-12-07T07:33:32;15.23;;;5.80;;
73337;SDS011;61575;49.908;35.556;2022-12-07T07:36:34;12.03;;;4.87;;
73337;SDS011;61575;49.908;35.556;2022-12-07T07:39:36;14.77;;;6.97;;
73337;SDS011;61575;49.908;35.556;2022-12-07T07:42:37;17.10;;;7.13;;
73337;SDS011;61575;49.908;35.556;2022-12-07T07:45:39;18.33;;;6.87;;
73337;SDS011;61575;49.908;35.556;2022-12-07T07:48:42;15.32;;;7.15;;
73337;SDS011;61575;49.908;35.556;2022-12-07T07:51:44;16.87;;;6.40;;
73337;SDS011;61575;49.908;35.556;2022-12-07T07:54:46;13.48;;;5.55;;
73337;SDS011;61575;49.908;35.556;2022-12-07T07:57:48;13.67;;;6.47;;
73337;SDS011;61575;49.908;35.556;2022-12-07T08:00:56;17.88;;;6.93;;
73337;SDS011;61575;49.908;35.556;2022-12-07T08:07:00;14.73;;;6.32;;
73337;SDS011;61575;49.908;35.556;2022-12-07T08:10:02;13.73;;;6.40;;
73337;SDS011;61575;49.908;35.556;2022-12-07T08:13:05;12.63;;;5.80;;
73337;SDS011;61575;49.908;35.556;2022-12-07T08:16:13;12.98;;;6.53;;
73337;SDS011;61575;49.908;35.556;2022-12-07T08:19:17;15.65;;;6.97;;
73337;SDS011;61575;49.908;35.556;2022-12-07T08:22:18;16.13;;;6.93;;
73337;SDS011;61575;49.908;35.556;2022-12-07T08:25:20;17.25;;;6.97;;
73337;SDS011;61575;49.908;35.556;2022-12-07T08:28:25;16.05;;;6.95;;
73337;SDS011;61575;49.908;35.556;2022-12-07T08:31:27;15.75;;;6.45;;
73337;SDS011;61575;49.908;35.556;2022-12-07T08:34:30;14.85;;;6.40;;
73337;SDS011;61575;49.908;35.556;2022-12-07T08:40:35;18.35;;;7.95;;
73337;SDS011;61575;49.908;35.556;2022-12-07T08:43:36;15.38;;;5.95;;
73337;SDS011;61575;49.908;35.556;2022-12-07T08:46:40;13.97;;;5.13;;
73337;SDS011;61575;49.908;35.556;2022-12-07T08:49:47;13.07;;;6.38;;
73337;SDS011;61575;49.908;35.556;2022-12-07T08:52:56;17.30;;;7.05;;
73337;SDS011;61575;49.908;35.556;2022-12-07T08:56:00;17.48;;;7.22;;
73337;SDS011;61575;49.908;35.556;2022-12-07T08:59:03;15.88;;;7.10;;
73337;SDS011;61575;49.908;35.556;2022-12-07T09:02:05;15.05;;;6.45;;
73337;SDS011;61575;49.908;35.556;2022-12-07T09:05:08;17.45;;;6.28;;
73337;SDS011;61575;49.908;35.556;2022-12-07T13:20:06;15.63;;;6.82;;
73337;SDS011;61575;49.908;35.556;2022-12-07T13:22:54;13.70;;;6.35;;
73337;SDS011;61575;49.908;35.556;2022-12-07T13:26:01;15.13;;;7.25;;
73337;SDS011;61575;49.908;35.556;2022-12-07T13:29:19;15.10;;;6.35;;
73337;SDS011;61575;49.908;35.556;2022-12-07T13:32:28;37.25;;;15.77;;
73337;SDS011;61575;49.908;35.556;2022-12-07T13:35:33;41.20;;;13.40;;
73337;SDS011;61575;49.908;35.556;2022-12-07T13:38:36;11.02;;;5.78;;
73337;SDS011;61575;49.908;35.556;2022-12-07T13:44:44;26.08;;;10.85;;
73337;SDS011;61575;49.908;35.556;2022-12-07T13:47:51;22.98;;;8.90;;
73337;SDS011;61575;49.908;35.556;2022-12-07T13:50:57;17.10;;;7.28;;
73337;SDS011;61575;49.908;35.556;2022-12-07T13:54:00;14.73;;;6.85;;
73337;SDS011;61575;49.908;35.556;2022-12-07T13:57:10;32.92;;;16.08;;
73337;SDS011;61575;49.908;35.556;2022-12-07T14:00:16;17.27;;;8.87;;
73337;SDS011;61575;49.908;35.556;2022-12-07T14:03:28;18.25;;;8.90;;
73337;SDS011;61575;49.908;35.556;2022-12-07T14:06:35;20.48;;;7.63;;
73337;SDS011;61575;49.908;35.556;2022-12-07T14:09:37;28.40;;;11.87;;
73337;SDS011;61575;49.908;35.556;2022-12-07T14:12:39;25.58;;;9.52;;
73337;SDS011;61575;49.908;35.556;2022-12-07T14:15:44;24.35;;;8.82;;
73337;SDS011;61575;49.908;35.556;2022-12-07T14:18:52;18.30;;;7.93;;
73337;SDS011;61575;49.908;35.556;2022-12-07T14:22:07;52.55;;;16.38;;
73337;SDS011;61575;49.908;35.556;2022-12-07T14:28:31;20.52;;;7.65;;
73337;SDS011;61575;49.908;35.556;2022-12-07T14:31:34;20.15;;;8.02;;
73337;SDS011;61575;49.908;35.556;2022-12-07T14:34:36;14.73;;;6.88;;
73337;SDS011;61575;49.908;35.556;2022-12-07T14:37:39;14.23;;;6.88;;
73337;SDS011;61575;49.908;35.556;2022-12-07T14:40:42;27.40;;;10.05;;
73337;SDS011;61575;49.908;35.556;2022-12-07T14:43:44;19.60;;;7.65;;
73337;SDS011;61575;49.908;35.556;2022-12-07T14:47:08;17.55;;;7.95;;
73337;SDS011;61575;49.908;35.556;2022-12-07T14:50:34;13.10;;;6.40;;
73337;SDS011;61575;49.908;35.556;2022-12-07T14:53:39;18.52;;;7.95;;
73337;SDS011;61575;49.908;35.556;2022-12-07T14:56:44;17.05;;;6.68;;
73337;SDS011;61575;49.908;35.556;2022-12-07T14:59:50;32.47;;;10.63;;
73337;SDS011;61575;49.908;35.556;2022-12-07T15:02:52;13.20;;;6.33;;
73337;SDS011;61575;49.908;35.556;2022-12-07T15:05:55;25.67;;;8.77;;
73337;SDS011;61575;49.908;35.556;2022-12-07T15:08:57;21.75;;;9.60;;
73337;SDS011;61575;49.908;35.556;2022-12-07T15:11:59;16.13;;;6.60;;
73337;SDS011;61575;49.908;35.556;2022-12-07T15:15:01;19.58;;;8.10;;
73337;SDS011;61575;49.908;35.556;2022-12-07T15:18:03;12.30;;;6.10;;
73337;SDS011;61575;49.908;35.556;2022-12-07T15:21:05;16.63;;;6.47;;
73337;SDS011;61575;49.908;35.556;2022-12-07T20:11:40;39.88;;;22.65;;
73337;SDS011;61575;49.908;35.556;2022-12-07T20:15:01;24.85;;;12.55;;
73337;SDS011;61575;49.908;35.556;2022-12-07T20:18:04;25.65;;;10.65;;
73337;SDS011;61575;49.908;35.556;2022-12-07T20:21:06;24.58;;;11.40;;
73337;SDS011;61575;49.908;35.556;2022-12-07T20:24:10;25.55;;;11.75;;
73337;SDS011;61575;49.908;35.556;2022-12-07T20:27:14;23.02;;;11.02;;
73337;SDS011;61575;49.908;35.556;2022-12-07T20:30:17;37.83;;;13.05;;
73337;SDS011;61575;49.908;35.556;2022-12-07T20:33:20;36.58;;;16.10;;
73337;SDS011;61575;49.908;35.556;2022-12-07T20:36:23;34.53;;;16.88;;
73337;SDS011;61575;49.908;35.556;2022-12-07T20:39:32;33.70;;;14.85;;
73337;SDS011;61575;49.908;35.556;2022-12-07T20:42:34;50.10;;;19.03;;
73337;SDS011;61575;49.908;35.556;2022-12-07T20:45:48;42.05;;;17.70;;
73337;SDS011;61575;49.908;35.556;2022-12-07T21:09:39;33.72;;;18.10;;
73337;SDS011;61575;49.908;35.556;2022-12-07T21:12:41;42.83;;;21.63;;
73337;SDS011;61575;49.908;35.556;2022-12-07T21:15:43;43.35;;;21.08;;
73337;SDS011;61575;49.908;35.556;2022-12-07T21:18:45;41.67;;;20.35;;
73337;SDS011;61575;49.908;35.556;2022-12-07T21:21:48;36.08;;;16.77;;
73337;SDS011;61575;49.908;35.556;2022-12-07T21:24:50;29.67;;;15.52;;
73337;SDS011;61575;49.908;35.556;2022-12-07T21:27:52;34.60;;;15.43;;
73337;SDS011;61575;49.908;35.556;2022-12-07T21:30:57;30.77;;;15.10;;
73337;SDS011;61575;49.908;35.556;2022-12-07T21:34:14;30.50;;;15.02;;
73337;SDS011;61575;49.908;35.556;2022-12-07T21:37:16;27.70;;;13.50;;
73337;SDS011;61575;49.908;35.556;2022-12-07T21:40:18;33.47;;;14.18;;
73337;SDS011;61575;49.908;35.556;2022-12-07T21:43:20;28.95;;;14.38;;
73337;SDS011;61575;49.908;35.556;2022-12-07T21:46:22;34.55;;;16.05;;
73337;SDS011;61575;49.908;35.556;2022-12-07T21:49:33;31.77;;;14.82;;
73337;SDS011;61575;49.908;35.556;2022-12-07T21:52:36;34.33;;;15.40;;
73337;SDS011;61575;49.908;35.556;2022-12-07T21:55:39;43.03;;;17.23;;
73337;SDS011;61575;49.908;35.556;2022-12-07T21:58:42;35.10;;;15.82;;
73337;SDS011;61575;49.908;35.556;2022-12-07T22:01:46;34.83;;;15.30;;
73337;SDS011;61575;49.908;35.556;2022-12-07T22:04:49;36.70;;;15.65;;
73337;SDS011;61575;49.908;35.556;2022-12-07T22:07:51;44.42;;;19.85;;
73337;SDS011;61575;49.908;35.556;2022-12-07T22:10:53;36.15;;;17.33;;
73337;SDS011;61575;49.908;35.556;2022-12-07T22:13:55;32.60;;;15.18;;
73337;SDS011;61575;49.908;35.556;2022-12-07T22:17:15;35.53;;;16.70;;
73337;SDS011;61575;49.908;35.556;2022-12-07T22:20:17;38.40;;;17.23;;
73337;SDS011;61575;49.908;35.556;2022-12-07T22:23:20;33.92;;;14.48;;
73337;SDS011;61575;49.908;35.556;2022-12-07T22:26:22;32.42;;;14.70;;
73337;SDS011;61575;49.908;35.556;2022-12-07T22:29:25;39.28;;;18.35;;
73337;SDS011;61575;49.908;35.556;2022-12-07T22:32:27;36.08;;;14.88;;
73337;SDS011;61575;49.908;35.556;2022-12-07T22:35:52;43.00;;;17.60;;
73337;SDS011;61575;49.908;35.556;2022-12-07T22:38:55;52.20;;;23.85;;
73337;SDS011;61575;49.908;35.556;2022-12-07T22:41:57;58.03;;;27.77;;
73337;SDS011;61575;49.908;35.556;2022-12-07T22:44:59;69.90;;;31.00;;
73337;SDS011;61575;49.908;35.556;2022-12-07T22:48:01;44.28;;;21.90;;
73337;SDS011;61575;49.908;35.556;2022-12-07T22:51:03;60.47;;;27.30;;
73337;SDS011;61575;49.908;35.556;2022-12-07T22:54:07;57.37;;;26.00;;
73337;SDS011;61575;49.908;35.556;2022-12-07T22:57:11;39.50;;;16.80;;
73337;SDS011;61575;49.908;35.556;2022-12-07T23:03:16;33.15;;;15.80;;
73337;SDS011;61575;49.908;35.556;2022-12-07T23:06:19;41.38;;;19.05;;
73337;SDS011;61575;49.908;35.556;2022-12-07T23:09:26;38.05;;;17.90;;
73337;SDS011;61575;49.908;35.556;2022-12-07T23:12:28;34.15;;;17.02;;
73337;SDS011;61575;49.908;35.556;2022-12-07T23:15:48;41.90;;;19.90;;
73337;SDS011;61575;49.908;35.556;2022-12-07T23:18:50;42.72;;;18.70;;
73337;SDS011;61575;49.908;35.556;2022-12-07T23:21:53;37.63;;;18.63;;
73337;SDS011;61575;49.908;35.556;2022-12-07T23:24:55;39.90;;;17.77;;
73337;SDS011;61575;49.908;35.556;2022-12-07T23:27:57;39.85;;;17.33;;
73337;SDS011;61575;49.908;35.556;2022-12-07T23:31:32;44.22;;;19.90;;
73337;SDS011;61575;49.908;35.556;2022-12-07T23:34:27;41.30;;;18.60;;
73337;SDS011;61575;49.908;35.556;2022-12-07T23:37:29;56.63;;;23.92;;
73337;SDS011;61575;49.908;35.556;2022-12-07T23:40:31;44.28;;;20.23;;
73337;SDS011;61575;49.908;35.556;2022-12-07T23:43:34;28.30;;;12.88;;
73337;SDS011;61575;49.908;35.556;2022-12-07T23:46:36;55.42;;;22.55;;
73337;SDS011;61575;49.908;35.556;2022-12-07T23:49:38;69.07;;;27.57;;
73337;SDS011;61575;49.908;35.556;2022-12-07T23:52:41;32.43;;;13.20;;
73337;SDS011;61575;49.908;35.556;2022-12-07T23:55:45;61.92;;;22.73;;
73337;SDS011;61575;49.908;35.556;2022-12-07T23:58:48;27.25;;;12.52;;
